Terminal Aerodrome Forecast
Issued by NWS

Home | Current Version | Previous Version | Text Only | Print | Product List | Glossary On
Versions: 1 2 3 4 5 6 7 8 9 10 11 12 13 14 15 16 17 18 19 20 21 22 23 24 25
000
FTUS42 KILM 040520
TAFCRE
TAF
KCRE 040520Z 0406/0506 00000KT 4SM BR SCT150 BKN250
      TEMPO 0408/0412 1SM BR SCT250
     FM041300 27004KT P6SM SCT035 SCT250
     FM041700 16008KT 5SM HZ VCSH SCT040 BKN250
     FM050100 07005KT P6SM VCSH BKN030=

USA.gov is the U.S. government's official web portal to all federal, state and local government web resources and services.